createdAt,value
2017-07-10T00:00:57.643Z,0
2017-07-10T00:01:58.342Z,0
2017-07-10T00:02:59.030Z,0
2017-07-10T00:04:00.014Z,0
2017-07-10T00:05:00.674Z,0
2017-07-10T00:06:01.661Z,0
2017-07-10T00:07:02.372Z,0
2017-07-10T00:08:03.041Z,0
2017-07-10T00:09:03.862Z,0
2017-07-10T00:10:04.537Z,0
2017-07-10T00:11:05.286Z,0
2017-07-10T00:12:06.223Z,0
2017-07-10T00:13:06.904Z,0
2017-07-10T00:14:07.844Z,0
2017-07-10T00:15:08.535Z,0
2017-07-10T00:16:09.243Z,0
2017-07-10T00:17:09.932Z,0
2017-07-10T00:18:10.936Z,0
2017-07-10T00:19:12.151Z,0
2017-07-10T00:20:12.853Z,0
2017-07-10T00:21:13.543Z,0
2017-07-10T00:22:14.228Z,0
2017-07-10T00:23:14.925Z,0
2017-07-10T00:24:16.015Z,0
2017-07-10T00:25:16.729Z,0
2017-07-10T00:26:17.416Z,0
2017-07-10T00:27:18.429Z,0
2017-07-10T00:28:19.124Z,0
2017-07-10T00:29:19.804Z,0
2017-07-10T00:30:20.806Z,0
2017-07-10T00:31:21.557Z,0
2017-07-10T00:32:22.252Z,0
2017-07-10T00:33:23.008Z,0
2017-07-10T00:34:23.705Z,0
2017-07-10T00:35:24.491Z,0
2017-07-10T00:36:25.197Z,0
2017-07-10T00:37:26.147Z,0
2017-07-10T00:38:26.910Z,0
2017-07-10T00:39:27.878Z,0
2017-07-10T00:40:28.682Z,0
2017-07-10T00:41:29.381Z,0
2017-07-10T00:42:30.061Z,0
2017-07-10T00:43:31.060Z,0
2017-07-10T00:44:31.748Z,0
2017-07-10T00:45:32.555Z,0
2017-07-10T00:46:33.231Z,0
2017-07-10T00:47:33.992Z,0
2017-07-10T00:48:34.706Z,0
2017-07-10T00:49:35.721Z,0
2017-07-10T00:50:36.404Z,0
2017-07-10T00:51:37.088Z,0
2017-07-10T00:52:37.796Z,0
2017-07-10T00:53:38.483Z,0
2017-07-10T00:54:39.178Z,0
2017-07-10T00:55:40.239Z,0
2017-07-10T00:56:40.924Z,0
2017-07-10T00:57:41.612Z,0
2017-07-10T00:58:42.310Z,0
2017-07-10T00:59:43.007Z,0
2017-07-10T01:00:43.689Z,0
2017-07-10T01:01:44.625Z,0
2017-07-10T01:02:45.325Z,0
2017-07-10T01:03:46.315Z,0
2017-07-10T01:04:47.044Z,0
2017-07-10T01:05:47.877Z,0
2017-07-10T01:06:48.577Z,0
2017-07-10T01:07:49.558Z,0
2017-07-10T01:08:50.254Z,0
2017-07-10T01:09:50.929Z,0
2017-07-10T01:10:51.687Z,0
2017-07-10T01:11:52.426Z,0
2017-07-10T01:12:53.080Z,0
2017-07-10T01:13:54.072Z,0
2017-07-10T01:14:54.924Z,0
2017-07-10T01:15:55.626Z,0
2017-07-10T01:16:56.608Z,0
2017-07-10T01:17:57.359Z,0
2017-07-10T01:18:58.385Z,0
2017-07-10T01:19:59.382Z,0
2017-07-10T01:21:00.063Z,0
2017-07-10T01:22:00.767Z,0
2017-07-10T01:23:01.502Z,0
2017-07-10T01:24:02.188Z,0
2017-07-10T01:25:02.886Z,0
2017-07-10T01:26:03.877Z,0
2017-07-10T01:27:04.566Z,0
2017-07-10T01:28:05.260Z,0
2017-07-10T01:29:06.018Z,0
2017-07-10T01:30:06.965Z,0
2017-07-10T01:31:07.658Z,0
2017-07-10T01:32:08.618Z,0
2017-07-10T01:33:09.301Z,0
2017-07-10T01:34:09.977Z,0
2017-07-10T01:35:10.678Z,0
2017-07-10T01:36:11.371Z,0
2017-07-10T01:37:12.069Z,0
2017-07-10T01:38:13.015Z,0
2017-07-10T01:39:13.705Z,0
2017-07-10T01:40:14.378Z,0
2017-07-10T01:41:15.354Z,0
2017-07-10T01:42:16.040Z,0
2017-07-10T01:43:16.760Z,0
2017-07-10T01:44:17.676Z,0
2017-07-10T01:45:18.626Z,0
2017-07-10T01:46:19.317Z,0
2017-07-10T01:47:20.004Z,0
2017-07-10T01:48:20.690Z,0
2017-07-10T01:49:21.384Z,0
2017-07-10T01:50:22.179Z,0
2017-07-10T01:51:23.163Z,0
2017-07-10T01:52:23.875Z,0
2017-07-10T01:53:24.575Z,0
2017-07-10T01:54:25.340Z,0
2017-07-10T01:55:26.081Z,0
2017-07-10T01:56:26.776Z,0
2017-07-10T01:57:27.781Z,0
2017-07-10T01:58:28.481Z,0
2017-07-10T01:59:29.156Z,0
2017-07-10T02:00:30.063Z,0
2017-07-10T02:01:30.749Z,0
2017-07-10T02:02:31.445Z,0
2017-07-10T02:03:32.447Z,0
2017-07-10T02:04:33.170Z,0
2017-07-10T02:05:33.897Z,0
2017-07-10T02:06:34.600Z,0
2017-07-10T02:07:35.325Z,0
2017-07-10T02:08:36.060Z,0
2017-07-10T02:09:37.296Z,0
2017-07-10T02:10:38.050Z,0
2017-07-10T02:11:38.926Z,0
2017-07-10T02:12:39.619Z,0
2017-07-10T02:13:40.306Z,0
2017-07-10T02:14:41.049Z,0
2017-07-10T02:15:41.981Z,0
2017-07-10T02:16:42.777Z,0
2017-07-10T02:17:43.824Z,0
2017-07-10T02:18:44.539Z,0
2017-07-10T02:19:45.281Z,0
2017-07-10T02:20:46.023Z,0
2017-07-10T02:21:47.152Z,0
2017-07-10T02:22:47.857Z,0
2017-07-10T02:23:48.596Z,0
2017-07-10T02:24:49.300Z,0
2017-07-10T02:25:50.054Z,0
2017-07-10T02:26:50.778Z,0
2017-07-10T02:27:51.794Z,0
2017-07-10T02:28:52.535Z,0
2017-07-10T02:29:53.242Z,0
2017-07-10T02:30:54.009Z,0
2017-07-10T02:31:54.816Z,0
2017-07-10T02:32:55.506Z,0
2017-07-10T02:33:56.193Z,0
2017-07-10T02:34:57.140Z,0
2017-07-10T02:35:57.845Z,0
2017-07-10T02:36:58.537Z,0
2017-07-10T02:37:59.227Z,0
2017-07-10T02:38:59.918Z,0
2017-07-10T02:40:00.619Z,0
2017-07-10T02:41:01.660Z,0
2017-07-10T02:42:02.335Z,0
2017-07-10T02:43:03.181Z,0
2017-07-10T02:44:03.942Z,0
2017-07-10T02:45:04.727Z,0
2017-07-10T02:46:05.386Z,0
2017-07-10T02:47:06.445Z,0
2017-07-10T02:48:07.099Z,0
2017-07-10T02:49:07.796Z,0
2017-07-10T02:50:08.467Z,0
2017-07-10T02:51:09.168Z,0
2017-07-10T02:52:09.866Z,0
2017-07-10T02:53:11.048Z,0
2017-07-10T02:54:11.748Z,0
2017-07-10T02:55:12.433Z,0
2017-07-10T02:56:13.456Z,0
2017-07-10T02:57:14.118Z,0
2017-07-10T02:58:14.860Z,0
2017-07-10T02:59:15.853Z,0
2017-07-10T03:00:16.550Z,0
2017-07-10T03:01:17.274Z,0
2017-07-10T03:02:17.972Z,0
2017-07-10T03:03:18.734Z,0
2017-07-10T03:04:19.432Z,0
2017-07-10T03:05:20.437Z,0
2017-07-10T03:06:21.375Z,0
2017-07-10T03:07:22.123Z,0
2017-07-10T03:08:22.819Z,0
2017-07-10T03:09:23.536Z,0
2017-07-10T03:10:24.280Z,0
2017-07-10T03:11:25.020Z,0
2017-07-10T03:12:26.047Z,0
2017-07-10T03:13:26.934Z,0
2017-07-10T03:14:27.596Z,0
2017-07-10T03:15:28.324Z,0
2017-07-10T03:16:29.060Z,0
2017-07-10T03:17:30.082Z,0
2017-07-10T03:18:30.887Z,0
2017-07-10T03:19:31.918Z,0
2017-07-10T03:20:32.652Z,0
2017-07-10T03:21:33.639Z,0
2017-07-10T03:22:34.386Z,0
2017-07-10T03:23:35.279Z,0
2017-07-10T03:24:36.567Z,0
2017-07-10T03:25:37.830Z,0
2017-07-10T03:26:38.517Z,0
2017-07-10T03:27:39.235Z,0
2017-07-10T03:28:39.926Z,0
2017-07-10T03:29:40.627Z,0
2017-07-10T03:30:41.387Z,0
2017-07-10T03:31:42.078Z,0
2017-07-10T03:32:43.137Z,0
2017-07-10T03:33:44.013Z,0
2017-07-10T03:34:44.704Z,0
2017-07-10T03:35:45.396Z,0
2017-07-10T03:36:46.092Z,0
2017-07-10T03:37:46.880Z,0
2017-07-10T03:38:47.921Z,0
2017-07-10T03:39:48.583Z,0
2017-07-10T03:40:49.290Z,0
2017-07-10T03:41:50.046Z,0
2017-07-10T03:42:50.800Z,0
2017-07-10T03:43:51.641Z,0
2017-07-10T03:44:52.625Z,0
2017-07-10T03:45:53.305Z,0
2017-07-10T03:46:54.025Z,0
2017-07-10T03:47:54.749Z,0
2017-07-10T03:48:55.551Z,0
2017-07-10T03:49:56.226Z,0
2017-07-10T03:50:57.215Z,0
2017-07-10T03:51:57.969Z,0
2017-07-10T03:52:58.695Z,0
2017-07-10T03:53:59.405Z,0
2017-07-10T03:55:00.329Z,5
2017-07-10T03:56:01.029Z,5
2017-07-10T03:57:02.029Z,5
2017-07-10T03:58:02.725Z,5
2017-07-10T03:59:03.437Z,5
2017-07-10T04:00:04.128Z,5
2017-07-10T04:01:04.832Z,5
2017-07-10T04:02:05.510Z,5
2017-07-10T04:03:06.461Z,5
2017-07-10T04:04:07.238Z,5
2017-07-10T04:05:08.250Z,5
2017-07-10T04:06:08.922Z,5
2017-07-10T04:07:09.598Z,5
2017-07-10T04:08:10.351Z,5
2017-07-10T04:09:11.275Z,5
2017-07-10T04:10:11.962Z,5
2017-07-10T04:11:12.648Z,5
2017-07-10T04:12:13.429Z,5
2017-07-10T04:13:14.102Z,5
2017-07-10T04:14:14.855Z,5
2017-07-10T04:15:15.695Z,5
2017-07-10T04:16:16.687Z,5
2017-07-10T04:17:17.390Z,5
2017-07-10T04:18:18.089Z,5
2017-07-10T04:19:18.800Z,5
2017-07-10T04:20:19.535Z,5
2017-07-10T04:21:20.237Z,5
2017-07-10T04:22:21.479Z,5
2017-07-10T04:23:22.165Z,5
2017-07-10T04:24:22.883Z,5
2017-07-10T04:25:24.005Z,5
2017-07-10T04:26:24.709Z,5
2017-07-10T04:27:25.443Z,5
2017-07-10T04:28:26.393Z,5
2017-07-10T04:29:27.109Z,5
2017-07-10T04:30:27.784Z,5
2017-07-10T04:31:28.517Z,5
2017-07-10T04:32:29.209Z,5
2017-07-10T04:33:29.904Z,5
2017-07-10T04:34:30.885Z,10
2017-07-10T04:35:31.650Z,10
2017-07-10T04:36:32.317Z,10
2017-07-10T04:37:33.015Z,15
2017-07-10T04:38:33.711Z,15
2017-07-10T04:39:34.410Z,15
2017-07-10T04:40:35.684Z,15
2017-07-10T04:41:36.489Z,15
2017-07-10T04:42:37.551Z,15
2017-07-10T04:43:38.209Z,15
2017-07-10T04:44:38.895Z,15
2017-07-10T04:45:39.902Z,15
2017-07-10T04:46:41.107Z,15
2017-07-10T04:47:41.800Z,15
2017-07-10T04:48:42.577Z,15
2017-07-10T04:49:43.274Z,15
2017-07-10T04:50:44.030Z,15
2017-07-10T04:51:44.992Z,15
2017-07-10T04:52:45.949Z,10
2017-07-10T04:53:46.648Z,10
2017-07-10T04:54:47.340Z,10
2017-07-10T04:55:48.064Z,10
2017-07-10T04:56:48.768Z,10
2017-07-10T04:57:49.543Z,10
2017-07-10T04:58:50.530Z,10
2017-07-10T04:59:51.483Z,10
2017-07-10T05:00:52.269Z,10
2017-07-10T05:01:52.918Z,15
2017-07-10T05:02:53.930Z,15
2017-07-10T05:03:54.602Z,15
2017-07-10T05:04:55.298Z,15
2017-07-10T05:05:56.235Z,15
2017-07-10T05:06:57.022Z,15
2017-07-10T05:07:57.698Z,20
2017-07-10T05:08:58.436Z,20
2017-07-10T05:09:59.138Z,20
2017-07-10T05:10:59.887Z,25
2017-07-10T05:12:01.082Z,25
2017-07-10T05:13:02.042Z,25
2017-07-10T05:14:02.788Z,25
2017-07-10T05:15:03.494Z,30
2017-07-10T05:16:04.209Z,30
2017-07-10T05:17:04.909Z,30
2017-07-10T05:18:05.910Z,30
2017-07-10T05:19:06.662Z,30
2017-07-10T05:20:07.417Z,30
2017-07-10T05:21:08.105Z,30
2017-07-10T05:22:08.801Z,30
2017-07-10T05:23:09.580Z,30
2017-07-10T05:24:10.561Z,30
2017-07-10T05:25:11.318Z,25
2017-07-10T05:26:12.316Z,25
2017-07-10T05:27:13.001Z,25
2017-07-10T05:28:13.821Z,25
2017-07-10T05:29:14.509Z,25
2017-07-10T05:30:15.459Z,20
2017-07-10T05:31:16.170Z,25
2017-07-10T05:32:16.836Z,25
2017-07-10T05:33:17.643Z,25
2017-07-10T05:34:18.345Z,25
2017-07-10T05:35:19.044Z,20
2017-07-10T05:36:20.002Z,15
2017-07-10T05:37:20.689Z,15
2017-07-10T05:38:21.559Z,15
2017-07-10T05:39:22.622Z,20
2017-07-10T05:40:23.326Z,25
2017-07-10T05:41:24.076Z,30
2017-07-10T05:42:24.765Z,30
2017-07-10T05:43:25.866Z,30
2017-07-10T05:44:26.562Z,25
2017-07-10T05:45:27.243Z,25
2017-07-10T05:46:27.949Z,30
2017-07-10T05:47:28.669Z,35
2017-07-10T05:48:29.457Z,40
2017-07-10T05:49:30.525Z,40
2017-07-10T05:50:31.207Z,40
2017-07-10T05:51:32.191Z,35
2017-07-10T05:52:32.875Z,35
2017-07-10T05:53:34.041Z,35
2017-07-10T05:54:34.740Z,35
2017-07-10T05:55:35.694Z,40
2017-07-10T05:56:36.388Z,40
2017-07-10T05:57:37.232Z,40
2017-07-10T05:58:37.964Z,40
2017-07-10T05:59:38.749Z,35
2017-07-10T06:00:39.484Z,35
2017-07-10T06:01:40.254Z,40
2017-07-10T06:02:40.933Z,40
2017-07-10T06:03:41.678Z,40
2017-07-10T06:04:42.369Z,40
2017-07-10T06:05:43.093Z,35
2017-07-10T06:06:43.827Z,35
2017-07-10T06:07:44.820Z,35
2017-07-10T06:08:45.699Z,35
2017-07-10T06:09:46.399Z,40
2017-07-10T06:10:47.165Z,45
2017-07-10T06:11:47.890Z,45
2017-07-10T06:12:48.595Z,45
2017-07-10T06:13:49.678Z,40
2017-07-10T06:14:50.385Z,40
2017-07-10T06:15:51.077Z,40
2017-07-10T06:16:51.772Z,40
2017-07-10T06:17:52.509Z,40
2017-07-10T06:18:53.445Z,40
2017-07-10T06:19:54.404Z,40
2017-07-10T06:20:55.087Z,40
2017-07-10T06:21:55.790Z,40
2017-07-10T06:22:56.541Z,40
2017-07-10T06:23:57.595Z,40
2017-07-10T06:24:58.311Z,40
2017-07-10T06:25:59.013Z,45
2017-07-10T06:26:59.993Z,50
2017-07-10T06:28:00.755Z,55
2017-07-10T06:29:01.490Z,60
2017-07-10T06:30:02.251Z,60
2017-07-10T06:31:03.015Z,60
2017-07-10T06:32:03.703Z,60
2017-07-10T06:33:04.715Z,60
2017-07-10T06:34:05.419Z,55
2017-07-10T06:35:06.173Z,55
2017-07-10T06:36:06.871Z,55
2017-07-10T06:37:07.649Z,55
2017-07-10T06:38:08.366Z,55
2017-07-10T06:39:09.421Z,55
2017-07-10T06:40:10.153Z,60
2017-07-10T06:41:10.942Z,60
2017-07-10T06:42:11.677Z,60
2017-07-10T06:43:12.387Z,60
2017-07-10T06:44:13.139Z,55
2017-07-10T06:45:13.888Z,55
2017-07-10T06:46:14.826Z,55
2017-07-10T06:47:15.535Z,55
2017-07-10T06:48:16.224Z,55
2017-07-10T06:49:16.916Z,55
2017-07-10T06:50:17.655Z,60
2017-07-10T06:51:18.656Z,60
2017-07-10T06:52:19.352Z,65
2017-07-10T06:53:20.064Z,65
2017-07-10T06:54:20.861Z,65
2017-07-10T06:55:21.576Z,70
2017-07-10T06:56:22.308Z,70
2017-07-10T06:57:23.026Z,75
2017-07-10T06:58:23.733Z,80
2017-07-10T06:59:24.421Z,85
2017-07-10T07:00:25.403Z,85
2017-07-10T07:01:26.247Z,90
2017-07-10T07:02:26.935Z,90
2017-07-10T07:03:28.192Z,95
2017-07-10T07:04:29.191Z,95
2017-07-10T07:05:29.929Z,95
2017-07-10T07:06:30.600Z,95
2017-07-10T07:07:31.290Z,95
2017-07-10T07:08:32.145Z,95
2017-07-10T07:09:32.838Z,95
2017-07-10T07:10:33.828Z,95
2017-07-10T07:11:34.634Z,95
2017-07-10T07:12:35.351Z,95
2017-07-10T07:13:36.088Z,90
2017-07-10T07:14:36.784Z,90
2017-07-10T07:15:37.526Z,90
2017-07-10T07:16:38.524Z,90
2017-07-10T07:17:39.253Z,90
2017-07-10T07:18:40.102Z,90
2017-07-10T07:19:40.776Z,90
2017-07-10T07:20:41.530Z,90
2017-07-10T07:21:42.273Z,90
2017-07-10T07:22:43.297Z,90
2017-07-10T07:23:44.012Z,95
2017-07-10T07:24:44.732Z,95
2017-07-10T07:25:45.476Z,100
2017-07-10T07:26:46.223Z,105
2017-07-10T07:27:46.933Z,105
2017-07-10T07:28:47.935Z,105
2017-07-10T07:29:48.641Z,105
2017-07-10T07:30:49.343Z,105
2017-07-10T07:31:50.056Z,105
2017-07-10T07:32:50.778Z,105
2017-07-10T07:33:51.506Z,105
2017-07-10T07:34:52.266Z,105
2017-07-10T07:35:53.012Z,110
2017-07-10T07:36:53.742Z,110
2017-07-10T07:37:54.482Z,110
2017-07-10T07:38:55.485Z,115
2017-07-10T07:39:56.477Z,115
2017-07-10T07:40:57.448Z,120
2017-07-10T07:41:58.165Z,120
2017-07-10T07:42:58.905Z,125
2017-07-10T07:43:59.793Z,125
2017-07-10T07:45:00.461Z,120
2017-07-10T07:46:01.421Z,115
2017-07-10T07:47:02.371Z,110
2017-07-10T07:48:03.075Z,110
2017-07-10T07:49:03.838Z,105
2017-07-10T07:50:04.539Z,105
2017-07-10T07:51:05.293Z,110
2017-07-10T07:52:05.996Z,110
2017-07-10T07:53:06.745Z,115
2017-07-10T07:54:07.757Z,120
2017-07-10T07:55:08.494Z,130
2017-07-10T07:56:09.241Z,135
2017-07-10T07:57:09.989Z,145
2017-07-10T07:58:10.668Z,150
2017-07-10T07:59:11.412Z,150
2017-07-10T08:00:13.448Z,150
2017-07-10T08:01:14.490Z,145
2017-07-10T08:02:15.188Z,140
2017-07-10T08:03:16.198Z,135
2017-07-10T08:04:16.943Z,130
2017-07-10T08:05:17.635Z,125
2017-07-10T08:06:18.637Z,130
2017-07-10T08:07:19.400Z,135
2017-07-10T08:08:20.125Z,135
2017-07-10T08:09:20.857Z,130
2017-07-10T08:10:21.626Z,125
2017-07-10T08:11:22.360Z,125
2017-07-10T08:12:23.294Z,115
2017-07-10T08:13:24.000Z,115
2017-07-10T08:14:24.698Z,115
2017-07-10T08:15:25.435Z,110
2017-07-10T08:16:26.164Z,110
2017-07-10T08:17:27.116Z,110
2017-07-10T08:18:27.830Z,105
2017-07-10T08:19:28.525Z,105
2017-07-10T08:20:29.300Z,110
2017-07-10T08:21:30.032Z,110
2017-07-10T08:22:30.739Z,115
2017-07-10T08:23:31.763Z,120
2017-07-10T08:24:32.462Z,125
2017-07-10T08:25:33.197Z,130
2017-07-10T08:26:34.250Z,130
2017-07-10T08:27:34.994Z,130
2017-07-10T08:28:35.687Z,130
2017-07-10T08:29:36.731Z,125
2017-07-10T08:30:37.403Z,120
2017-07-10T08:31:38.132Z,115
2017-07-10T08:32:38.880Z,110
2017-07-10T08:33:39.584Z,105
2017-07-10T08:34:40.280Z,100
2017-07-10T08:35:41.256Z,95
2017-07-10T08:36:42.071Z,95
2017-07-10T08:37:42.823Z,95
2017-07-10T08:38:43.597Z,100
2017-07-10T08:39:44.290Z,110
2017-07-10T08:40:44.964Z,115
2017-07-10T08:41:46.123Z,115
2017-07-10T08:42:47.110Z,115
2017-07-10T08:43:47.853Z,120
2017-07-10T08:44:48.554Z,125
2017-07-10T08:45:49.240Z,130
2017-07-10T08:46:50.006Z,130
2017-07-10T08:47:51.002Z,130
2017-07-10T08:48:51.756Z,135
2017-07-10T08:49:52.464Z,140
2017-07-10T08:50:53.202Z,145
2017-07-10T08:51:54.064Z,145
2017-07-10T08:52:54.814Z,135
2017-07-10T08:53:55.800Z,135
2017-07-10T08:54:56.481Z,140
2017-07-10T08:55:57.224Z,155
2017-07-10T08:56:58.267Z,160
2017-07-10T08:59:14.786Z,175
2017-07-10T09:00:15.639Z,185
2017-07-10T09:01:16.584Z,190
2017-07-10T09:02:17.567Z,200
2017-07-10T09:03:18.280Z,210
2017-07-10T09:04:18.998Z,210
2017-07-10T09:05:19.720Z,190
2017-07-10T09:06:20.448Z,185
2017-07-10T09:07:21.181Z,190
2017-07-10T09:08:21.892Z,185
2017-07-10T09:09:23.187Z,180
2017-07-10T09:10:23.842Z,175
2017-07-10T09:11:24.564Z,170
2017-07-10T09:12:25.299Z,165
2017-07-10T09:13:26.031Z,165
2017-07-10T09:14:26.775Z,170
2017-07-10T09:15:27.872Z,170
2017-07-10T09:16:28.541Z,170
2017-07-10T09:17:29.302Z,175
2017-07-10T09:18:29.998Z,180
2017-07-10T09:19:30.711Z,180
2017-07-10T09:20:31.684Z,180
2017-07-10T09:21:32.364Z,190
2017-07-10T09:22:33.258Z,190
2017-07-10T09:23:33.992Z,195
2017-07-10T09:24:34.726Z,195
2017-07-10T09:25:35.423Z,205
2017-07-10T09:26:36.140Z,210
2017-07-10T09:27:37.180Z,215
2017-07-10T09:28:38.156Z,215
2017-07-10T09:29:38.911Z,215
2017-07-10T09:30:39.670Z,220
2017-07-10T09:31:40.429Z,220
2017-07-10T09:32:41.233Z,215
2017-07-10T09:33:42.249Z,215
2017-07-10T09:34:42.943Z,210
2017-07-10T09:35:43.665Z,210
2017-07-10T09:36:44.355Z,210
2017-07-10T09:37:45.151Z,210
2017-07-10T09:38:46.103Z,210
2017-07-10T09:39:48.173Z,205
2017-07-10T09:40:48.956Z,205
2017-07-10T09:41:49.662Z,205
2017-07-10T09:42:50.368Z,215
2017-07-10T09:43:51.058Z,215
2017-07-10T09:44:52.061Z,205
2017-07-10T09:45:52.756Z,200
2017-07-10T09:46:53.523Z,200
2017-07-10T09:47:54.284Z,215
2017-07-10T09:48:54.979Z,240
2017-07-10T09:49:55.937Z,265
2017-07-10T09:50:56.631Z,280
2017-07-10T09:51:57.509Z,285
2017-07-10T09:52:58.237Z,280
2017-07-10T09:53:58.990Z,260
2017-07-10T09:54:59.662Z,250
2017-07-10T09:56:00.643Z,245
2017-07-10T09:57:01.511Z,240
2017-07-10T09:58:02.287Z,230
2017-07-10T09:59:02.953Z,230
2017-07-10T10:00:03.655Z,230
2017-07-10T10:01:04.421Z,235
2017-07-10T10:02:05.569Z,235
2017-07-10T10:03:06.262Z,240
2017-07-10T10:04:06.955Z,245
2017-07-10T10:05:07.655Z,250
2017-07-10T10:06:08.354Z,250
2017-07-10T10:07:09.094Z,245
2017-07-10T10:08:10.052Z,240
2017-07-10T10:09:10.757Z,230
2017-07-10T10:10:11.447Z,225
2017-07-10T10:11:12.153Z,235
2017-07-10T10:12:12.848Z,235
2017-07-10T10:13:13.602Z,225
2017-07-10T10:14:14.578Z,225
2017-07-10T10:15:15.314Z,225
2017-07-10T10:16:16.008Z,230
2017-07-10T10:17:16.956Z,255
2017-07-10T10:18:17.737Z,270
2017-07-10T10:19:18.708Z,270
2017-07-10T10:20:19.423Z,260
2017-07-10T10:21:20.113Z,240
2017-07-10T10:22:21.070Z,220
2017-07-10T10:23:21.789Z,205
2017-07-10T10:24:22.502Z,190
2017-07-10T10:25:23.526Z,185
2017-07-10T10:26:24.204Z,175
2017-07-10T10:27:24.992Z,175
2017-07-10T10:28:25.699Z,185
2017-07-10T10:29:26.424Z,190
2017-07-10T10:30:27.671Z,190
2017-07-10T10:31:28.415Z,190
2017-07-10T10:32:29.215Z,195
2017-07-10T10:33:29.971Z,195
2017-07-10T10:34:30.682Z,200
2017-07-10T10:35:31.442Z,200
2017-07-10T10:36:32.393Z,210
2017-07-10T10:37:33.098Z,220
2017-07-10T10:38:33.886Z,225
2017-07-10T10:39:34.629Z,225
2017-07-10T10:40:35.329Z,225
2017-07-10T10:41:36.064Z,225
2017-07-10T10:42:37.075Z,220
2017-07-10T10:43:37.837Z,215
2017-07-10T10:44:38.532Z,210
2017-07-10T10:45:39.294Z,215
2017-07-10T10:46:39.980Z,225
2017-07-10T10:47:41.039Z,240
2017-07-10T10:48:41.740Z,265
2017-07-10T10:49:42.498Z,280
2017-07-10T10:50:43.232Z,280
2017-07-10T10:51:43.986Z,275
2017-07-10T10:52:44.713Z,250
2017-07-10T10:53:45.425Z,235
2017-07-10T10:54:46.419Z,235
2017-07-10T10:55:47.128Z,250
2017-07-10T10:56:47.820Z,250
2017-07-10T10:57:48.631Z,220
2017-07-10T10:58:49.406Z,200
2017-07-10T10:59:50.119Z,180
2017-07-10T11:00:50.798Z,180
2017-07-10T11:01:51.487Z,180
2017-07-10T11:02:52.280Z,190
2017-07-10T11:03:52.982Z,215
2017-07-10T11:04:54.027Z,240
2017-07-10T11:05:54.739Z,255
2017-07-10T11:06:55.414Z,245
2017-07-10T11:07:56.325Z,275
2017-07-10T11:08:57.034Z,255
2017-07-10T11:09:57.733Z,245
2017-07-10T11:10:58.729Z,235
2017-07-10T11:11:59.437Z,225
2017-07-10T11:13:00.243Z,215
2017-07-10T11:14:00.943Z,210
2017-07-10T11:15:01.657Z,215
2017-07-10T11:16:02.645Z,210
2017-07-10T11:17:03.353Z,205
2017-07-10T11:18:04.169Z,205
2017-07-10T11:19:04.896Z,205
2017-07-10T11:20:06.023Z,210
2017-07-10T11:21:06.757Z,220
2017-07-10T11:22:07.795Z,220
2017-07-10T11:23:08.548Z,225
2017-07-10T11:24:09.234Z,220
2017-07-10T11:25:10.004Z,210
2017-07-10T11:26:10.714Z,200
2017-07-10T11:27:11.481Z,190
2017-07-10T11:28:12.463Z,180
2017-07-10T11:29:13.159Z,180
2017-07-10T11:30:13.843Z,170
2017-07-10T11:31:14.574Z,165
2017-07-10T11:32:15.273Z,160
2017-07-10T11:33:16.274Z,160
2017-07-10T11:34:16.989Z,170
2017-07-10T11:35:17.790Z,170
2017-07-10T11:36:18.492Z,175
2017-07-10T11:37:19.200Z,185
2017-07-10T11:38:19.960Z,190
2017-07-10T11:39:21.037Z,195
2017-07-10T11:40:22.014Z,205
2017-07-10T11:41:22.717Z,210
2017-07-10T11:42:23.420Z,210
2017-07-10T11:43:24.213Z,205
2017-07-10T11:44:25.219Z,205
2017-07-10T11:45:25.976Z,190
2017-07-10T11:46:26.665Z,190
2017-07-10T11:47:27.380Z,205
2017-07-10T11:48:28.072Z,195
2017-07-10T11:49:29.102Z,195
2017-07-10T11:50:30.150Z,200
2017-07-10T11:51:30.934Z,200
2017-07-10T11:52:31.679Z,200
2017-07-10T11:53:32.368Z,200
2017-07-10T11:54:33.503Z,210
2017-07-10T11:55:34.210Z,210
2017-07-10T11:56:35.177Z,210
2017-07-10T11:57:35.858Z,210
2017-07-10T11:58:36.573Z,210
2017-07-10T11:59:37.267Z,200
2017-07-10T12:00:37.974Z,200
2017-07-10T12:01:39.107Z,210
2017-07-10T12:02:39.791Z,225
2017-07-10T12:03:40.507Z,230
2017-07-10T12:04:41.419Z,240
2017-07-10T12:05:42.111Z,250
2017-07-10T12:06:42.849Z,225
2017-07-10T12:07:43.830Z,195
2017-07-10T12:08:44.531Z,200
2017-07-10T12:09:45.358Z,200
2017-07-10T12:10:46.013Z,190
2017-07-10T12:11:47.008Z,180
2017-07-10T12:12:48.043Z,180
2017-07-10T12:13:48.772Z,175
2017-07-10T12:14:49.980Z,170
2017-07-10T12:15:51.038Z,165
2017-07-10T12:16:51.776Z,160
2017-07-10T12:17:52.524Z,140
2017-07-10T12:18:53.464Z,140
2017-07-10T12:19:54.374Z,130
2017-07-10T12:20:55.198Z,125
2017-07-10T12:21:55.939Z,135
2017-07-10T12:22:56.656Z,150
2017-07-10T12:23:57.357Z,160
2017-07-10T12:24:58.813Z,175
2017-07-10T12:25:59.763Z,180
2017-07-10T12:27:00.498Z,180
2017-07-10T12:28:01.223Z,190
2017-07-10T12:29:01.929Z,200
2017-07-10T12:30:02.654Z,210
2017-07-10T12:31:04.443Z,220
2017-07-10T12:32:05.153Z,235
2017-07-10T12:33:05.861Z,245
2017-07-10T12:34:06.610Z,245
2017-07-10T12:35:07.278Z,240
2017-07-10T12:36:08.376Z,265
2017-07-10T12:37:09.348Z,235
2017-07-10T12:38:10.753Z,215
2017-07-10T12:39:11.439Z,215
2017-07-10T12:40:12.134Z,245
2017-07-10T12:41:12.867Z,255
2017-07-10T12:42:13.886Z,240
2017-07-10T12:43:14.619Z,245
2017-07-10T12:44:15.311Z,245
2017-07-10T12:45:16.049Z,240
2017-07-10T12:46:16.914Z,230
2017-07-10T12:47:17.708Z,230
2017-07-10T12:48:18.706Z,240
2017-07-10T12:49:19.429Z,240
2017-07-10T12:50:20.119Z,250
2017-07-10T12:51:20.873Z,250
2017-07-10T12:52:21.541Z,255
2017-07-10T12:53:22.587Z,265
2017-07-10T12:54:23.375Z,275
2017-07-10T12:55:24.086Z,280
2017-07-10T12:56:24.828Z,280
2017-07-10T12:57:25.590Z,285
2017-07-10T12:58:26.295Z,295
2017-07-10T12:59:27.281Z,300
2017-07-10T13:00:27.977Z,295
2017-07-10T13:01:28.839Z,305
2017-07-10T13:02:29.561Z,285
2017-07-10T13:03:30.233Z,300
2017-07-10T13:04:30.998Z,320
2017-07-10T13:05:32.047Z,335
2017-07-10T13:06:32.850Z,340
2017-07-10T13:07:33.537Z,325
2017-07-10T13:08:34.246Z,315
2017-07-10T13:09:34.949Z,280
2017-07-10T13:10:36.090Z,260
2017-07-10T13:11:36.823Z,300
2017-07-10T13:12:37.482Z,310
2017-07-10T13:13:38.191Z,440
2017-07-10T13:14:38.894Z,475
2017-07-10T13:15:39.602Z,365
2017-07-10T13:16:40.674Z,485
2017-07-10T13:17:41.361Z,615
2017-07-10T13:18:42.430Z,645
2017-07-10T13:19:43.137Z,670
2017-07-10T13:20:43.861Z,670
2017-07-10T13:21:44.875Z,610
2017-07-10T13:22:45.655Z,580
2017-07-10T13:23:46.371Z,540
2017-07-10T13:24:47.070Z,410
2017-07-10T13:25:47.976Z,220
2017-07-10T13:26:48.682Z,220
2017-07-10T13:27:49.378Z,225
2017-07-10T13:28:50.352Z,245
2017-07-10T13:29:51.118Z,260
2017-07-10T13:30:52.001Z,275
2017-07-10T13:31:52.791Z,260
2017-07-10T13:32:53.523Z,250
2017-07-10T13:33:54.364Z,245
2017-07-10T13:34:55.446Z,250
2017-07-10T13:35:56.209Z,275
2017-07-10T13:36:56.882Z,310
2017-07-10T13:37:57.606Z,345
2017-07-10T13:38:58.351Z,380
2017-07-10T13:39:59.059Z,335
2017-07-10T13:40:59.805Z,395
2017-07-10T13:42:00.592Z,430
2017-07-10T13:43:01.289Z,535
2017-07-10T13:44:01.997Z,870
2017-07-10T13:45:02.701Z,520
2017-07-10T13:46:03.416Z,440
2017-07-10T13:47:04.363Z,600
2017-07-10T13:48:05.276Z,710
2017-07-10T13:49:05.991Z,1145
2017-07-10T13:50:06.695Z,545
2017-07-10T13:51:07.396Z,375
2017-07-10T13:52:08.307Z,380
2017-07-10T13:53:09.719Z,375
2017-07-10T13:54:10.484Z,315
2017-07-10T13:55:11.232Z,295
2017-07-10T13:56:11.925Z,295
2017-07-10T13:58:28.617Z,325
2017-07-10T13:59:29.331Z,325
2017-07-10T14:00:30.110Z,310
2017-07-10T14:01:30.868Z,280
2017-07-10T14:02:31.569Z,250
2017-07-10T14:03:32.294Z,225
2017-07-10T14:04:33.035Z,220
2017-07-10T14:05:34.106Z,210
2017-07-10T14:06:34.843Z,210
2017-07-10T14:07:35.621Z,210
2017-07-10T14:08:36.451Z,210
2017-07-10T14:09:37.172Z,205
2017-07-10T14:10:37.877Z,195
2017-07-10T14:11:38.594Z,190
2017-07-10T14:12:39.849Z,185
2017-07-10T14:13:40.577Z,180
2017-07-10T14:14:41.301Z,175
2017-07-10T14:15:42.047Z,170
2017-07-10T14:16:42.741Z,160
2017-07-10T14:17:43.569Z,150
2017-07-10T14:18:44.547Z,140
2017-07-10T14:19:45.556Z,130
2017-07-10T14:20:46.354Z,120
2017-07-10T14:21:47.042Z,115
2017-07-10T14:22:47.739Z,115
2017-07-10T14:23:48.508Z,110
2017-07-10T14:24:49.412Z,100